Time;durP1;ratioP1;P1;durP2;ratioP2;P2;SDS_P1;SDS_P2;PMS_P1;PMS_P2;Temp;Humidity;BMP_temperature;BMP_pressure;BME280_temperature;BME280_humidity;BME280_pressure;Samples;Min_cycle;Max_cycle;Signal;HPM_P1;HPM_P2
2022/06/01 00:01:54;;;;;;;13.20;12.00;;;11.10;99.90;;;;;;5105636;28;20508;-69
2022/06/01 00:04:21;;;;;;;12.35;11.18;;;11.10;99.90;;;;;;5104342;28;20047;-69
2022/06/01 00:06:47;;;;;;;15.32;13.57;;;11.10;99.90;;;;;;5088737;28;20035;-70
2022/06/01 00:09:12;;;;;;;13.48;12.18;;;11.10;99.90;;;;;;5083267;28;20036;-69
2022/06/01 00:11:39;;;;;;;15.63;14.23;;;11.10;99.90;;;;;;5090402;27;20035;-68
2022/06/01 00:14:05;;;;;;;14.98;13.43;;;11.10;99.90;;;;;;5084632;27;20497;-69
2022/06/01 00:16:32;;;;;;;17.60;16.00;;;11.10;99.90;;;;;;5089763;27;20798;-69
2022/06/01 00:18:57;;;;;;;15.27;13.88;;;11.20;99.90;;;;;;5108064;27;20042;-69
2022/06/01 00:21:24;;;;;;;15.88;14.48;;;11.20;99.90;;;;;;5090095;27;20039;-69
2022/06/01 00:23:50;;;;;;;17.77;16.08;;;11.10;99.90;;;;;;5074136;27;20043;-69
2022/06/01 00:26:16;;;;;;;14.10;12.82;;;11.20;99.90;;;;;;5106201;27;20095;-69
2022/06/01 00:28:42;;;;;;;14.18;12.88;;;11.20;99.90;;;;;;5104321;28;20688;-69
2022/06/01 00:31:11;;;;;;;14.15;12.75;;;11.10;99.90;;;;;;5073885;27;20042;-68
2022/06/01 00:33:37;;;;;;;16.67;15.10;;;11.20;99.90;;;;;;5106288;27;20122;-69
2022/06/01 00:36:06;;;;;;;16.98;15.27;;;11.20;99.90;;;;;;5090167;27;20488;-69
2022/06/01 00:38:31;;;;;;;15.88;14.43;;;11.20;99.90;;;;;;5105111;27;20051;-68
2022/06/01 00:41:01;;;;;;;17.33;15.82;;;11.20;99.90;;;;;;5089307;27;20057;-69
2022/06/01 00:43:39;;;;;;;15.48;14.18;;;11.20;99.90;;;;;;5106517;27;20070;-69
2022/06/01 00:46:05;;;;;;;17.60;15.80;;;11.20;99.90;;;;;;5103603;27;20127;-69
2022/06/01 00:48:33;;;;;;;14.18;12.88;;;11.20;99.90;;;;;;5116992;27;20475;-69
2022/06/01 00:50:59;;;;;;;17.83;16.13;;;11.20;99.90;;;;;;5085576;27;20046;-69
2022/06/01 00:53:29;;;;;;;14.15;12.95;;;11.20;99.90;;;;;;5106079;27;20044;-69
2022/06/01 00:55:59;;;;;;;16.00;14.55;;;11.30;99.90;;;;;;5106816;27;20138;-69
2022/06/01 00:58:36;;;;;;;14.38;12.98;;;11.30;99.90;;;;;;5104450;27;20308;-69
2022/06/01 01:01:04;;;;;;;15.32;13.93;;;11.30;99.90;;;;;;5123267;27;20045;-69
2022/06/01 01:03:35;;;;;;;14.93;13.52;;;11.30;99.90;;;;;;5107608;27;20131;-69
2022/06/01 01:06:17;;;;;;;18.13;16.52;;;11.30;99.90;;;;;;5099125;27;20043;-69
2022/06/01 01:08:44;;;;;;;19.92;17.95;;;11.30;99.90;;;;;;5107819;27;20058;-69
2022/06/01 01:11:15;;;;;;;20.20;18.25;;;11.30;99.90;;;;;;5089825;27;20405;-69
2022/06/01 01:13:46;;;;;;;22.35;20.33;;;11.20;99.90;;;;;;5102509;27;20036;-69
2022/06/01 01:16:14;;;;;;;20.90;18.98;;;11.20;99.90;;;;;;5101132;27;20059;-69
2022/06/01 01:18:43;;;;;;;23.05;20.95;;;11.10;99.90;;;;;;5069152;27;20039;-68
2022/06/01 01:21:46;;;;;;;21.75;19.77;;;11.10;99.90;;;;;;5091231;27;20031;-68
2022/06/01 01:24:41;;;;;;;23.33;21.13;;;11.00;99.90;;;;;;5099543;27;20122;-68
2022/06/01 01:27:07;;;;;;;23.25;20.95;;;11.00;99.90;;;;;;5065906;27;20047;-68
2022/06/01 01:29:34;;;;;;;18.73;17.13;;;10.90;99.90;;;;;;5086810;27;20047;-68
2022/06/01 01:32:00;;;;;;;16.42;15.02;;;10.90;99.90;;;;;;5087653;27;20122;-68
2022/06/01 01:34:28;;;;;;;17.25;15.75;;;10.80;99.90;;;;;;5085228;27;20126;-68
2022/06/01 01:36:59;;;;;;;16.67;15.18;;;10.80;99.90;;;;;;5101514;27;20038;-68
2022/06/01 01:39:27;;;;;;;21.08;19.17;;;10.90;99.90;;;;;;5106082;27;20055;-68
2022/06/01 01:41:53;;;;;;;16.75;15.35;;;10.90;99.90;;;;;;5088790;27;20050;-68
2022/06/01 01:44:30;;;;;;;20.27;18.45;;;10.90;99.90;;;;;;5103282;27;20050;-68
2022/06/01 01:46:57;;;;;;;18.35;16.67;;;10.80;99.90;;;;;;5087173;27;20107;-68
2022/06/01 01:49:26;;;;;;;18.88;17.17;;;10.80;99.90;;;;;;5090867;27;20050;-68
2022/06/01 01:51:59;;;;;;;16.15;14.75;;;10.80;99.90;;;;;;5123124;27;20073;-68
2022/06/01 01:54:34;;;;;;;18.92;17.27;;;10.80;99.90;;;;;;5087888;27;20510;-68
2022/06/01 01:57:19;;;;;;;18.05;16.35;;;10.80;99.90;;;;;;5102748;28;20146;-68
2022/06/01 02:00:04;;;;;;;16.75;15.25;;;10.80;99.90;;;;;;5106509;27;20126;-68
2022/06/01 02:02:55;;;;;;;16.98;15.52;;;10.80;99.90;;;;;;5117461;27;20050;-68
2022/06/01 02:06:07;;;;;;;22.15;20.23;;;10.80;99.90;;;;;;5103422;27;20179;-68
2022/06/01 02:08:48;;;;;;;19.50;17.70;;;10.70;99.90;;;;;;5105640;27;20078;-68
2022/06/01 02:14:12;;;;;;;20.52;18.83;;;10.70;99.90;;;;;;5081432;28;20040;-68
2022/06/01 02:16:49;;;;;;;23.33;21.42;;;10.70;99.90;;;;;;5076581;28;20495;-68
2022/06/01 02:19:23;;;;;;;20.20;18.30;;;10.70;99.90;;;;;;5097855;28;20048;-70
2022/06/01 02:21:56;;;;;;;20.10;18.40;;;10.60;99.90;;;;;;5080639;28;20071;-69
2022/06/01 02:24:23;;;;;;;19.38;17.58;;;10.60;99.90;;;;;;5078784;28;20051;-69
2022/06/01 02:26:52;;;;;;;23.58;21.58;;;10.60;99.90;;;;;;5075743;28;20072;-68
2022/06/01 02:29:24;;;;;;;22.00;20.05;;;10.60;99.90;;;;;;5062919;28;20060;-68
2022/06/01 02:31:52;;;;;;;23.15;21.13;;;10.70;99.90;;;;;;5066072;28;20036;-68
2022/06/01 02:34:19;;;;;;;23.58;21.67;;;10.60;99.90;;;;;;5077606;28;20533;-68
2022/06/01 02:36:48;;;;;;;25.65;23.45;;;10.60;99.90;;;;;;5092852;28;20517;-68
2022/06/01 02:39:16;;;;;;;26.60;24.30;;;10.60;99.90;;;;;;5077155;28;20039;-67
2022/06/01 02:44:26;;;;;;;30.50;28.00;;;10.60;99.90;;;;;;5081966;28;20076;-69
2022/06/01 02:46:52;;;;;;;31.42;28.88;;;10.60;99.90;;;;;;5080738;28;20071;-68
2022/06/01 02:49:18;;;;;;;32.88;30.10;;;10.60;99.90;;;;;;5060273;28;20063;-68
2022/06/01 02:51:45;;;;;;;29.15;26.85;;;10.60;99.90;;;;;;5084157;28;20078;-69
2022/06/01 02:54:11;;;;;;;34.92;31.80;;;10.60;99.90;;;;;;5083744;28;20088;-68
2022/06/01 02:56:36;;;;;;;27.88;25.58;;;10.60;99.90;;;;;;5087346;28;20048;-68
2022/06/01 02:59:02;;;;;;;28.95;26.55;;;10.60;99.90;;;;;;5085082;27;20181;-68
2022/06/01 03:01:29;;;;;;;29.33;27.02;;;10.60;99.90;;;;;;5071352;28;20036;-68
2022/06/01 03:03:54;;;;;;;31.48;28.90;;;10.60;99.90;;;;;;5085338;28;20040;-67
2022/06/01 03:06:20;;;;;;;30.63;28.13;;;10.60;99.90;;;;;;5104387;28;20509;-68
2022/06/01 03:08:46;;;;;;;29.83;27.42;;;10.70;99.90;;;;;;5085995;28;20036;-68
2022/06/01 03:11:15;;;;;;;33.35;30.67;;;10.70;99.90;;;;;;5102899;28;20044;-68
2022/06/01 03:13:41;;;;;;;31.90;29.10;;;10.70;99.90;;;;;;5087649;28;20035;-68
2022/06/01 03:16:07;;;;;;;38.33;35.13;;;10.70;99.90;;;;;;5086961;28;20043;-69
2022/06/01 03:18:33;;;;;;;32.78;30.08;;;10.70;99.90;;;;;;5084116;28;20047;-69
2022/06/01 03:20:59;;;;;;;36.20;33.10;;;10.60;99.90;;;;;;5098634;28;20047;-69
2022/06/01 03:23:26;;;;;;;31.70;29.05;;;10.60;99.90;;;;;;5102940;28;20051;-69
2022/06/01 03:25:52;;;;;;;31.80;29.17;;;10.60;99.90;;;;;;5084875;28;20394;-69
2022/06/01 03:28:18;;;;;;;29.88;27.30;;;10.60;99.90;;;;;;5102746;28;20135;-69
2022/06/01 03:30:45;;;;;;;31.80;29.10;;;10.60;99.90;;;;;;5100368;28;20180;-68
2022/06/01 03:33:13;;;;;;;31.65;28.98;;;10.60;99.90;;;;;;5100179;28;20047;-68
2022/06/01 03:35:40;;;;;;;32.72;29.83;;;10.60;99.90;;;;;;5085094;28;20486;-68
2022/06/01 03:38:06;;;;;;;33.85;30.92;;;10.60;99.90;;;;;;5105798;28;20121;-68
2022/06/01 03:40:34;;;;;;;33.40;30.60;;;10.70;99.90;;;;;;5088431;28;20054;-68
2022/06/01 03:43:02;;;;;;;34.33;31.42;;;10.70;99.90;;;;;;5085462;28;20111;-68
2022/06/01 03:48:14;;;;;;;32.30;29.60;;;10.70;99.90;;;;;;5097609;28;20320;-68
2022/06/01 03:50:41;;;;;;;32.00;29.30;;;10.70;99.90;;;;;;5086894;28;20100;-68
2022/06/01 03:53:07;;;;;;;37.72;34.47;;;10.70;99.90;;;;;;5069854;28;20525;-68
2022/06/01 03:55:34;;;;;;;34.28;31.20;;;10.70;99.90;;;;;;5103647;28;20044;-69
2022/06/01 03:58:00;;;;;;;34.80;32.03;;;10.70;99.90;;;;;;5104868;27;20027;-68
2022/06/01 04:00:26;;;;;;;32.97;30.20;;;10.70;99.90;;;;;;5101179;28;20047;-68
2022/06/01 04:02:53;;;;;;;34.58;31.70;;;10.70;99.90;;;;;;5088222;28;20047;-68
2022/06/01 04:05:21;;;;;;;33.30;30.50;;;10.70;99.90;;;;;;5094449;28;20055;-68
2022/06/01 04:07:47;;;;;;;36.67;33.67;;;10.70;99.90;;;;;;5089077;28;20055;-69
2022/06/01 04:10:16;;;;;;;35.20;32.30;;;10.70;99.90;;;;;;5093310;27;20081;-68
2022/06/01 04:12:42;;;;;;;37.67;34.38;;;10.70;99.90;;;;;;5104908;28;20052;-68
2022/06/01 04:15:08;;;;;;;37.50;34.25;;;10.70;99.90;;;;;;5098539;28;20127;-68
2022/06/01 04:17:35;;;;;;;35.97;32.83;;;10.70;99.90;;;;;;5102564;28;20056;-68
2022/06/01 04:20:02;;;;;;;37.88;34.65;;;10.70;99.90;;;;;;5090713;27;20067;-68
2022/06/01 04:22:27;;;;;;;37.38;34.28;;;10.70;99.90;;;;;;5079107;28;20141;-68
2022/06/01 04:24:53;;;;;;;38.13;34.80;;;10.70;99.90;;;;;;5063572;28;20474;-69
2022/06/01 04:27:19;;;;;;;37.85;34.65;;;10.80;99.90;;;;;;5088374;28;20046;-69
2022/06/01 04:29:44;;;;;;;36.10;33.20;;;10.80;99.90;;;;;;5093602;28;20517;-68
2022/06/01 04:32:18;;;;;;;37.45;34.08;;;10.80;99.90;;;;;;5061152;28;20036;-69
2022/06/01 04:34:44;;;;;;;41.78;38.10;;;10.80;99.90;;;;;;5092878;28;20122;-69
2022/06/01 04:37:10;;;;;;;35.17;32.22;;;10.80;99.90;;;;;;5058515;28;20177;-68
2022/06/01 04:39:36;;;;;;;36.75;33.45;;;10.80;99.90;;;;;;5089017;28;20044;-68
2022/06/01 04:42:02;;;;;;;35.17;32.30;;;10.80;99.90;;;;;;5091305;28;20447;-68
2022/06/01 04:44:28;;;;;;;34.30;31.38;;;10.90;99.90;;;;;;5094792;28;20077;-69
2022/06/01 04:46:53;;;;;;;34.75;31.88;;;10.90;99.90;;;;;;5095533;28;20118;-69
2022/06/01 04:49:19;;;;;;;37.42;34.28;;;10.90;99.90;;;;;;5056395;28;20151;-69
2022/06/01 04:51:45;;;;;;;33.60;30.70;;;10.90;99.90;;;;;;5098231;28;20059;-69
2022/06/01 04:54:10;;;;;;;37.42;34.22;;;10.90;99.90;;;;;;5099408;28;20127;-68
2022/06/01 04:56:36;;;;;;;39.72;36.28;;;11.00;99.90;;;;;;5089727;28;20048;-69
2022/06/01 04:59:02;;;;;;;33.47;30.67;;;11.00;99.90;;;;;;5100610;28;20064;-69
2022/06/01 05:01:28;;;;;;;37.45;34.30;;;11.00;99.90;;;;;;5073362;28;20051;-68
2022/06/01 05:03:54;;;;;;;36.40;33.30;;;11.00;99.90;;;;;;5058172;28;20047;-68
2022/06/01 05:06:19;;;;;;;35.03;32.22;;;11.00;99.90;;;;;;5079579;28;20051;-71
2022/06/01 05:08:46;;;;;;;34.55;31.52;;;11.10;99.90;;;;;;5083187;28;20067;-68
2022/06/01 05:11:11;;;;;;;39.20;35.83;;;11.10;99.90;;;;;;5085050;28;20112;-69
2022/06/01 05:13:37;;;;;;;39.78;36.40;;;11.10;99.90;;;;;;5088575;28;20086;-68
2022/06/01 05:16:06;;;;;;;41.80;38.13;;;11.10;99.90;;;;;;5092319;27;20749;-69
2022/06/01 05:18:32;;;;;;;36.33;33.33;;;11.10;99.90;;;;;;5096871;27;20177;-68
2022/06/01 05:20:58;;;;;;;39.65;36.13;;;11.10;99.90;;;;;;5085674;28;20130;-68
2022/06/01 05:23:24;;;;;;;39.63;36.20;;;11.20;99.90;;;;;;5098611;28;20070;-69
2022/06/01 05:25:53;;;;;;;37.38;34.20;;;11.20;99.90;;;;;;5101750;28;20075;-69
2022/06/01 05:28:21;;;;;;;37.42;34.20;;;11.20;99.90;;;;;;5085390;28;20069;-69
2022/06/01 05:30:47;;;;;;;34.30;31.35;;;11.20;99.90;;;;;;5100893;27;20046;-68
2022/06/01 05:33:16;;;;;;;28.67;26.35;;;11.20;99.90;;;;;;5082573;28;20074;-68
2022/06/01 05:35:42;;;;;;;27.83;25.52;;;11.20;99.90;;;;;;5081526;28;20040;-69
2022/06/01 05:38:08;;;;;;;27.80;25.60;;;11.30;99.90;;;;;;5066759;28;20028;-68
2022/06/01 05:40:34;;;;;;;27.85;25.45;;;11.30;99.90;;;;;;5079638;28;20056;-68
2022/06/01 05:43:00;;;;;;;28.45;26.05;;;11.30;99.90;;;;;;5089628;28;20225;-69
2022/06/01 05:45:26;;;;;;;25.80;23.60;;;11.30;99.90;;;;;;5093525;28;20058;-70
2022/06/01 05:47:52;;;;;;;27.83;25.48;;;11.40;99.90;;;;;;5050346;28;20043;-72
2022/06/01 05:50:18;;;;;;;26.33;23.92;;;11.40;99.90;;;;;;5099269;28;20066;-72
2022/06/01 05:52:44;;;;;;;31.10;28.40;;;11.40;99.90;;;;;;5079405;28;20502;-72
2022/06/01 05:55:14;;;;;;;28.88;26.38;;;11.50;99.90;;;;;;5102748;28;20050;-73
2022/06/01 05:57:40;;;;;;;;;;;11.50;99.90;;;;;;5097823;28;20582;-72
2022/06/01 06:00:10;;;;;;;33.72;30.75;;;11.50;99.90;;;;;;5087379;28;19931;-72
2022/06/01 06:02:36;;;;;;;36.05;32.70;;;11.50;99.90;;;;;;5096694;28;20270;-72
2022/06/01 06:05:03;;;;;;;40.25;36.65;;;11.60;99.90;;;;;;5070259;28;20050;-72
2022/06/01 06:07:29;;;;;;;37.17;33.85;;;11.60;99.90;;;;;;5099868;28;20200;-72
2022/06/01 06:09:55;;;;;;;41.85;38.15;;;11.70;99.90;;;;;;5082638;28;20138;-72
2022/06/01 06:12:21;;;;;;;38.05;34.75;;;11.70;99.90;;;;;;5099090;28;20059;-72
2022/06/01 06:14:48;;;;;;;40.78;37.17;;;11.80;99.90;;;;;;5097419;28;20059;-72
2022/06/01 06:17:14;;;;;;;38.40;34.97;;;11.80;99.90;;;;;;5067188;28;20074;-72
2022/06/01 06:19:39;;;;;;;37.53;34.30;;;11.90;99.90;;;;;;5083690;28;20082;-71
2022/06/01 06:22:09;;;;;;;37.78;34.38;;;11.90;99.90;;;;;;5081935;28;20036;-71
2022/06/01 06:24:35;;;;;;;36.65;33.45;;;12.00;99.90;;;;;;5067686;28;20054;-72
2022/06/01 06:27:01;;;;;;;35.85;32.75;;;12.10;99.90;;;;;;5102003;28;20035;-71
2022/06/01 06:29:27;;;;;;;36.53;33.33;;;12.20;99.90;;;;;;5098439;28;20039;-71
2022/06/01 06:31:52;;;;;;;36.67;33.40;;;12.20;99.90;;;;;;5100530;28;20133;-72
2022/06/01 06:34:22;;;;;;;36.53;33.22;;;12.30;99.90;;;;;;5068897;28;20376;-72
2022/06/01 06:36:47;;;;;;;36.15;33.05;;;12.40;99.90;;;;;;5085268;28;20044;-71
2022/06/01 06:39:14;;;;;;;33.83;30.92;;;12.50;99.90;;;;;;5087340;28;20089;-71
2022/06/01 06:41:39;;;;;;;36.03;32.83;;;12.50;99.90;;;;;;5087367;28;20047;-71
2022/06/01 06:44:05;;;;;;;33.05;30.05;;;12.60;99.90;;;;;;5100204;28;20036;-71
2022/06/01 06:46:31;;;;;;;34.42;31.33;;;12.70;99.90;;;;;;5067262;28;20131;-71
2022/06/01 06:48:57;;;;;;;32.35;29.45;;;12.90;99.90;;;;;;5082353;28;20142;-71
2022/06/01 06:51:25;;;;;;;31.20;28.40;;;13.00;99.90;;;;;;5082538;28;20047;-71
2022/06/01 06:53:50;;;;;;;30.05;27.42;;;13.10;99.90;;;;;;5099857;28;20079;-72
2022/06/01 06:56:19;;;;;;;28.40;25.90;;;13.20;99.90;;;;;;5082586;28;20082;-70
2022/06/01 06:58:44;;;;;;;28.20;25.80;;;13.40;99.90;;;;;;5084535;28;20063;-70
2022/06/01 07:01:10;;;;;;;26.83;24.55;;;13.50;99.90;;;;;;5084706;28;20031;-70
2022/06/01 07:03:36;;;;;;;25.50;23.17;;;13.60;99.90;;;;;;5077789;28;20443;-70
2022/06/01 07:06:17;;;;;;;27.05;24.67;;;13.60;99.90;;;;;;5082519;28;20039;-70
2022/06/01 07:08:52;;;;;;;24.00;22.00;;;13.70;99.90;;;;;;5081008;28;20501;-70
2022/06/01 07:11:20;;;;;;;17.77;16.17;;;13.70;99.90;;;;;;5101660;28;20047;-70
2022/06/01 07:13:47;;;;;;;22.77;20.77;;;13.70;99.90;;;;;;5081734;28;20080;-70
2022/06/01 07:16:15;;;;;;;21.25;19.35;;;13.70;99.90;;;;;;5089512;28;20082;-70
2022/06/01 07:18:44;;;;;;;21.65;19.75;;;13.60;99.90;;;;;;5076512;28;20036;-71
2022/06/01 07:21:10;;;;;;;20.20;18.50;;;13.60;99.90;;;;;;5079530;28;20036;-71
2022/06/01 07:23:37;;;;;;;22.63;20.58;;;13.50;99.90;;;;;;5065370;28;20051;-71
2022/06/01 07:26:09;;;;;;;24.83;22.48;;;13.30;99.90;;;;;;5078050;28;20040;-71
2022/06/01 07:28:35;;;;;;;26.13;23.83;;;13.20;99.90;;;;;;5075525;28;20044;-70
2022/06/01 07:31:06;;;;;;;21.50;19.60;;;13.20;99.90;;;;;;5060165;28;20040;-71
2022/06/01 07:33:33;;;;;;;18.77;16.95;;;13.10;99.90;;;;;;5050025;28;20198;-72
2022/06/01 07:36:02;;;;;;;20.23;18.30;;;13.00;99.90;;;;;;5083632;28;20102;-72
2022/06/01 07:44:06;;;;;;;29.80;26.48;;;12.70;99.90;;;;;;5084341;28;20044;-73
2022/06/01 07:46:35;;;;;;;21.58;19.52;;;12.60;99.90;;;;;;5085399;28;20049;-73
2022/06/01 07:49:01;;;;;;;8.65;7.75;;;12.60;99.90;;;;;;5082984;28;20036;-73
2022/06/01 07:51:27;;;;;;;10.93;9.82;;;12.50;99.90;;;;;;5087711;28;20061;-73
2022/06/01 07:53:53;;;;;;;7.20;6.50;;;12.30;99.90;;;;;;5082957;28;20040;-73
2022/06/01 07:56:18;;;;;;;7.07;6.15;;;12.20;99.90;;;;;;5084659;28;20068;-73
2022/06/01 07:58:44;;;;;;;9.50;8.60;;;12.10;99.90;;;;;;5068641;28;20055;-73
2022/06/01 08:01:10;;;;;;;13.43;12.20;;;12.00;99.90;;;;;;5076200;28;20053;-73
2022/06/01 08:03:36;;;;;;;16.80;15.27;;;11.90;99.90;;;;;;5066773;28;20320;-73
2022/06/01 08:06:02;;;;;;;15.55;13.95;;;11.90;99.90;;;;;;5084032;28;20044;-72
2022/06/01 08:08:28;;;;;;;12.05;10.95;;;11.90;99.90;;;;;;5084606;28;20083;-73
2022/06/01 08:10:54;;;;;;;12.13;11.02;;;11.80;99.90;;;;;;5064838;28;20136;-73
2022/06/01 08:13:20;;;;;;;10.60;9.32;;;11.80;99.90;;;;;;5063715;28;20563;-73
2022/06/01 08:15:48;;;;;;;11.88;10.48;;;11.80;99.90;;;;;;5104922;28;20511;-73
2022/06/01 08:18:23;;;;;;;9.50;8.68;;;11.80;99.90;;;;;;5085689;28;20119;-73
2022/06/01 08:20:49;;;;;;;9.43;8.52;;;11.80;99.90;;;;;;5105405;28;20040;-74
2022/06/01 08:23:16;;;;;;;9.27;8.27;;;11.80;99.90;;;;;;5104304;28;20104;-73
2022/06/01 08:25:48;;;;;;;12.68;11.50;;;11.80;99.90;;;;;;5104867;27;20517;-73
2022/06/01 08:28:18;;;;;;;10.88;8.98;;;11.80;99.90;;;;;;5089415;28;20081;-73
2022/06/01 08:30:44;;;;;;;9.57;8.68;;;11.80;99.90;;;;;;5105352;28;20493;-73
2022/06/01 08:33:10;;;;;;;7.38;6.68;;;11.80;99.90;;;;;;5102736;27;20035;-73
2022/06/01 08:35:42;;;;;;;6.60;5.90;;;11.90;99.90;;;;;;5103336;27;20441;-73
2022/06/01 08:38:10;;;;;;;5.65;4.97;;;12.00;99.90;;;;;;5087241;28;20062;-73
2022/06/01 08:41:03;;;;;;;7.32;6.63;;;12.10;99.90;;;;;;5103607;28;20363;-73
2022/06/01 08:43:39;;;;;;;9.45;8.65;;;12.40;99.90;;;;;;5101305;28;20139;-73
2022/06/01 08:46:05;;;;;;;9.35;8.55;;;12.80;99.90;;;;;;5084969;28;20477;-73
2022/06/01 08:48:43;;;;;;;10.10;9.20;;;13.10;99.90;;;;;;5085590;28;20074;-72
2022/06/01 08:51:11;;;;;;;11.57;10.43;;;13.40;99.90;;;;;;5100943;28;20143;-72
2022/06/01 08:53:38;;;;;;;10.48;9.48;;;13.60;99.90;;;;;;5104057;28;20108;-73
2022/06/01 08:56:11;;;;;;;9.75;8.85;;;13.90;99.90;;;;;;5104908;28;20131;-72
2022/06/01 08:59:02;;;;;;;7.88;7.10;;;14.10;99.90;;;;;;5102468;28;20047;-73
2022/06/01 09:01:44;;;;;;;9.25;8.35;;;14.30;99.90;;;;;;5097631;28;20051;-72
2022/06/01 09:04:40;;;;;;;10.10;9.20;;;14.60;99.90;;;;;;5099934;28;20043;-72
2022/06/01 09:07:22;;;;;;;10.80;9.88;;;14.90;99.90;;;;;;5084770;28;20040;-73
2022/06/01 09:10:02;;;;;;;9.93;8.93;;;15.00;99.90;;;;;;5085269;28;20583;-72
2022/06/01 09:12:30;;;;;;;11.88;10.75;;;15.20;99.90;;;;;;5098258;28;20071;-72
2022/06/01 09:14:58;;;;;;;12.48;11.27;;;15.30;99.90;;;;;;5085229;28;20043;-72
2022/06/01 09:17:24;;;;;;;11.60;10.60;;;15.40;99.90;;;;;;5086494;28;20052;-72
2022/06/01 09:22:42;;;;;;;10.15;9.27;;;15.60;99.90;;;;;;5098190;28;20122;-72
2022/06/01 09:25:15;;;;;;;11.05;10.15;;;15.70;99.90;;;;;;5086268;28;20036;-72
2022/06/01 09:27:43;;;;;;;9.93;9.10;;;15.90;99.90;;;;;;5081430;28;20531;-72
2022/06/01 09:30:23;;;;;;;10.82;9.82;;;16.10;99.90;;;;;;5100514;28;20035;-72
2022/06/01 09:33:25;;;;;;;10.85;9.85;;;16.30;99.90;;;;;;5082441;28;20043;-72
2022/06/01 09:36:24;;;;;;;9.85;9.05;;;16.10;99.90;;;;;;5084738;28;20138;-72
2022/06/01 09:39:01;;;;;;;11.23;10.23;;;15.90;99.90;;;;;;5099102;28;20042;-72
2022/06/01 09:41:40;;;;;;;7.25;5.30;;;15.70;99.90;;;;;;5100966;28;20043;-72
2022/06/01 09:44:12;;;;;;;5.57;4.35;;;15.60;99.90;;;;;;5098532;28;20051;-72
2022/06/01 09:46:40;;;;;;;7.88;6.72;;;15.60;99.90;;;;;;5098722;28;20044;-72
2022/06/01 09:49:36;;;;;;;7.65;6.72;;;15.50;99.90;;;;;;5088259;28;20047;-72
2022/06/01 09:52:31;;;;;;;7.50;6.82;;;15.40;99.90;;;;;;5085155;28;20124;-71
2022/06/01 09:55:13;;;;;;;8.80;8.00;;;15.30;99.90;;;;;;5088864;27;20036;-72
2022/06/01 09:57:39;;;;;;;8.95;8.15;;;15.30;99.90;;;;;;5081580;28;20093;-71
2022/06/01 10:06:21;;;;;;;4.05;3.55;;;16.30;99.90;;;;;;5098782;28;20056;-71
2022/06/01 10:09:08;;;;;;;3.80;2.85;;;16.70;99.90;;;;;;5115156;27;20051;-71
2022/06/01 10:11:42;;;;;;;2.78;1.90;;;16.90;99.90;;;;;;5103027;28;20047;-70
2022/06/01 10:14:14;;;;;;;2.95;2.28;;;16.90;99.90;;;;;;5075943;28;20048;-71
2022/06/01 10:17:13;;;;;;;2.75;2.08;;;16.70;99.90;;;;;;5080095;28;20048;-71
2022/06/01 10:19:50;;;;;;;5.53;4.90;;;16.40;99.90;;;;;;5080416;28;20600;-71
2022/06/01 10:22:33;;;;;;;7.10;6.40;;;16.20;99.90;;;;;;5077524;28;20087;-71
2022/06/01 10:25:24;;;;;;;6.43;5.82;;;15.90;99.90;;;;;;5064663;28;20044;-72
2022/06/01 10:28:01;;;;;;;7.90;7.10;;;15.70;99.90;;;;;;5082505;28;20122;-71
2022/06/01 10:30:40;;;;;;;8.05;7.25;;;15.50;99.90;;;;;;5066231;28;20044;-71
2022/06/01 10:33:14;;;;;;;7.80;7.00;;;15.40;99.90;;;;;;5080301;28;20106;-71
2022/06/01 10:36:05;;;;;;;9.07;7.45;;;15.30;99.90;;;;;;5063266;28;20113;-71
2022/06/01 10:38:55;;;;;;;6.10;5.43;;;15.20;99.90;;;;;;5080163;28;20055;-71
2022/06/01 10:41:21;;;;;;;7.88;7.07;;;15.10;99.90;;;;;;5082312;28;20036;-71
2022/06/01 10:44:08;;;;;;;6.68;6.07;;;15.00;99.90;;;;;;5081129;28;20405;-71
2022/06/01 10:47:15;;;;;;;8.82;8.02;;;14.90;99.90;;;;;;5080017;28;20074;-71
2022/06/01 10:50:10;;;;;;;5.57;2.90;;;14.80;99.90;;;;;;5078875;28;20104;-71
2022/06/01 10:53:01;;;;;;;3.80;2.55;;;14.60;99.90;;;;;;5069367;28;20051;-71
2022/06/01 10:55:36;;;;;;;4.95;2.70;;;14.30;99.90;;;;;;5073043;28;20055;-72
2022/06/01 10:58:03;;;;;;;5.65;2.75;;;13.90;99.90;;;;;;5064653;28;20040;-72
2022/06/01 11:01:01;;;;;;;4.50;2.88;;;13.80;99.90;;;;;;5083657;28;20052;-72
2022/06/01 11:03:48;;;;;;;4.43;2.58;;;13.50;99.90;;;;;;5025552;28;20410;-72
2022/06/01 11:06:36;;;;;;;7.65;3.40;;;13.50;99.90;;;;;;5081258;28;20032;-72
2022/06/01 11:09:22;;;;;;;6.47;3.28;;;13.40;99.90;;;;;;5060441;28;20032;-72
2022/06/01 11:12:26;;;;;;;3.08;2.25;;;13.60;99.90;;;;;;5062645;28;20040;-71
2022/06/01 11:14:55;;;;;;;4.57;2.50;;;14.00;99.90;;;;;;5080589;27;20043;-72
2022/06/01 11:17:33;;;;;;;3.72;1.10;;;14.50;99.90;;;;;;5122584;27;20051;-72
2022/06/01 11:20:30;;;;;;;2.67;0.90;;;14.90;99.90;;;;;;5109248;27;20047;-72
2022/06/01 11:23:14;;;;;;;4.20;2.72;;;15.10;99.90;;;;;;5092848;27;20542;-72
2022/06/01 11:26:24;;;;;;;6.03;3.47;;;15.30;99.90;;;;;;5108954;27;20054;-73
2022/06/01 11:29:11;;;;;;;;;;;15.60;99.90;;;;;;5091351;27;20503;-71
2022/06/01 11:31:39;;;;;;;3.42;1.60;;;15.60;99.90;;;;;;5142973;27;19919;-71
2022/06/01 11:34:15;;;;;;;1.52;0.90;;;15.50;99.90;;;;;;5087249;27;20053;-72
2022/06/01 11:37:03;;;;;;;2.05;1.15;;;15.40;99.90;;;;;;5106651;27;20039;-71
2022/06/01 11:39:44;;;;;;;1.83;1.05;;;15.20;99.90;;;;;;5141163;27;20071;-71
2022/06/01 11:42:26;;;;;;;1.58;1.00;;;15.00;99.90;;;;;;5091527;27;20545;-72
2022/06/01 11:45:12;;;;;;;1.95;1.17;;;14.80;99.90;;;;;;5140543;27;20488;-72
2022/06/01 11:47:50;;;;;;;1.85;1.00;;;14.70;99.90;;;;;;5104888;27;20390;-71
2022/06/01 11:50:17;;;;;;;4.20;2.03;;;14.60;99.90;;;;;;5108467;27;20110;-72
2022/06/01 11:52:56;;;;;;;4.07;2.10;;;14.50;99.90;;;;;;5109381;27;20396;-71
2022/06/01 11:55:24;;;;;;;3.40;2.28;;;14.20;99.90;;;;;;5090736;27;20050;-71
2022/06/01 11:58:03;;;;;;;5.30;2.50;;;14.00;99.90;;;;;;5109484;27;20039;-72
2022/06/01 12:00:35;;;;;;;2.97;2.30;;;13.80;99.90;;;;;;5108498;27;20053;-72
2022/06/01 12:03:19;;;;;;;2.78;2.13;;;13.70;99.90;;;;;;5088545;27;20047;-72
2022/06/01 12:06:04;;;;;;;3.38;2.05;;;14.00;99.90;;;;;;5136234;27;20046;-72
2022/06/01 12:08:41;;;;;;;4.03;2.00;;;14.30;99.90;;;;;;5107044;27;20059;-72
2022/06/01 12:11:14;;;;;;;3.47;2.20;;;14.60;99.90;;;;;;5104298;27;20051;-72
2022/06/01 12:13:43;;;;;;;2.78;2.22;;;14.70;99.90;;;;;;5099118;28;20051;-72
2022/06/01 12:16:25;;;;;;;2.63;2.03;;;14.70;99.90;;;;;;5101223;28;20066;-72
2022/06/01 12:19:06;;;;;;;4.03;2.22;;;14.80;99.90;;;;;;5100756;28;20075;-73
2022/06/01 12:21:41;;;;;;;2.80;2.00;;;14.80;99.90;;;;;;5100799;28;20059;-72
2022/06/01 12:30:14;;;;;;;2.65;2.08;;;14.90;99.90;;;;;;5088901;28;20062;-72
2022/06/01 12:33:05;;;;;;;3.45;1.90;;;15.20;99.90;;;;;;5103079;28;20398;-72
2022/06/01 12:35:47;;;;;;;3.85;2.00;;;15.80;99.90;;;;;;5086770;28;20138;-72
2022/06/01 12:38:37;;;;;;;3.17;1.80;;;16.30;99.90;;;;;;5101107;28;20047;-71
2022/06/01 12:41:14;;;;;;;2.85;1.70;;;16.60;99.90;;;;;;5090206;28;20127;-72
2022/06/01 12:43:46;;;;;;;2.95;1.88;;;17.00;99.90;;;;;;5101688;28;20521;-72
2022/06/01 12:46:28;;;;;;;3.85;2.05;;;17.20;99.90;;;;;;5084487;28;20497;-73
2022/06/01 12:49:24;;;;;;;2.40;2.00;;;17.30;99.90;;;;;;5082060;28;20050;-72
2022/06/01 12:51:53;;;;;;;2.42;1.70;;;17.10;99.90;;;;;;5085068;28;20047;-72
2022/06/01 12:54:32;;;;;;;4.15;2.80;;;16.70;99.90;;;;;;5102440;28;20036;-72
2022/06/01 12:56:59;;;;;;;5.65;2.10;;;16.10;99.90;;;;;;5121615;27;20096;-73
2022/06/01 12:59:29;;;;;;;4.13;2.35;;;15.70;99.90;;;;;;5085440;28;20052;-73
2022/06/01 13:02:01;;;;;;;7.10;2.50;;;15.10;99.90;;;;;;5100202;28;20052;-74
2022/06/01 13:04:27;;;;;;;4.05;1.77;;;14.50;99.90;;;;;;5099925;28;20075;-73
2022/06/01 13:06:54;;;;;;;5.93;1.95;;;14.10;99.90;;;;;;5068598;28;20055;-73
2022/06/01 13:09:28;;;;;;;3.45;2.35;;;13.60;99.90;;;;;;5068453;28;20071;-72
2022/06/01 13:12:06;;;;;;;3.90;1.95;;;13.30;99.90;;;;;;5090654;27;20071;-72
2022/06/01 13:14:34;;;;;;;3.65;2.40;;;13.10;99.90;;;;;;5103642;27;20383;-72
2022/06/01 13:17:09;;;;;;;3.53;3.00;;;13.20;99.90;;;;;;5103134;27;20047;-72
2022/06/01 13:19:35;;;;;;;4.55;3.30;;;13.60;99.90;;;;;;5103926;27;20046;-72
2022/06/01 13:22:24;;;;;;;2.55;1.73;;;14.20;99.90;;;;;;5105172;27;20043;-72
2022/06/01 13:25:00;;;;;;;1.80;1.52;;;14.70;99.90;;;;;;5104679;27;20054;-72
2022/06/01 13:27:29;;;;;;;2.55;1.52;;;15.10;99.90;;;;;;5105659;27;20149;-72